createdAt,value
2023-01-06T00:00:04.630Z,5.08
2023-01-06T00:02:31.137Z,5.09
2023-01-06T00:04:57.629Z,5.15
2023-01-06T00:07:24.077Z,5.16
2023-01-06T00:09:50.521Z,5.16
2023-01-06T00:12:19.036Z,5.17
2023-01-06T00:14:46.673Z,5.13
2023-01-06T00:17:13.512Z,5.00
2023-01-06T00:19:40.154Z,4.94
2023-01-06T00:22:06.672Z,4.93
2023-01-06T00:24:33.612Z,4.92
2023-01-06T00:27:00.174Z,4.90
2023-01-06T00:29:26.911Z,4.90
2023-01-06T00:31:53.453Z,4.92
2023-01-06T00:34:19.875Z,4.94
2023-01-06T00:36:46.402Z,4.93
2023-01-06T00:39:13.453Z,4.90
2023-01-06T00:41:59.217Z,4.87
2023-01-06T00:44:25.671Z,4.89
2023-01-06T00:46:52.104Z,4.86
2023-01-06T00:49:18.584Z,4.88
2023-01-06T00:51:45.105Z,4.90
2023-01-06T00:54:12.355Z,4.83
2023-01-06T00:56:39.986Z,4.81
2023-01-06T00:59:06.933Z,4.76
2023-01-06T01:01:34.362Z,4.77
2023-01-06T01:04:00.846Z,4.81
2023-01-06T01:06:27.267Z,4.83
2023-01-06T01:08:54.830Z,4.85
2023-01-06T01:11:40.136Z,4.88
2023-01-06T01:14:06.985Z,4.94
2023-01-06T01:16:33.478Z,4.92
2023-01-06T01:19:00.476Z,4.89
2023-01-06T01:21:26.891Z,4.84
2023-01-06T01:23:53.386Z,4.81
2023-01-06T01:26:19.899Z,4.86
2023-01-06T01:28:46.364Z,4.84
2023-01-06T01:31:13.494Z,4.82
2023-01-06T01:33:39.990Z,4.80
2023-01-06T01:36:07.276Z,4.82
2023-01-06T01:38:33.708Z,4.86
2023-01-06T01:41:00.307Z,4.84
2023-01-06T01:43:42.661Z,4.83
2023-01-06T01:46:09.333Z,4.80
2023-01-06T01:48:35.940Z,4.78
2023-01-06T01:51:03.950Z,4.83
2023-01-06T01:53:33.212Z,4.85
2023-01-06T01:56:01.308Z,4.88
2023-01-06T01:58:38.775Z,4.89
2023-01-06T02:01:07.014Z,4.87
2023-01-06T02:03:33.507Z,4.91
2023-01-06T02:06:03.167Z,4.92
2023-01-06T02:08:29.600Z,4.93
2023-01-06T02:10:56.279Z,4.93
2023-01-06T02:13:22.876Z,4.89
2023-01-06T02:15:50.423Z,4.89
2023-01-06T02:18:22.997Z,4.84
2023-01-06T02:20:56.143Z,4.84
2023-01-06T02:23:25.883Z,4.85
2023-01-06T02:25:55.077Z,4.80
2023-01-06T02:28:24.673Z,4.72
2023-01-06T02:31:09.884Z,4.66
2023-01-06T02:33:51.471Z,4.71
2023-01-06T02:36:20.886Z,4.64
2023-01-06T02:39:01.119Z,4.70
2023-01-06T02:41:30.635Z,4.64
2023-01-06T02:44:20.562Z,4.53
2023-01-06T02:46:58.979Z,4.53
2023-01-06T02:49:32.736Z,4.52
2023-01-06T02:51:59.155Z,4.40
2023-01-06T02:54:25.559Z,4.35
2023-01-06T02:56:57.181Z,4.28
2023-01-06T02:59:26.627Z,4.23
2023-01-06T03:01:54.684Z,4.23
2023-01-06T03:04:24.847Z,4.22
2023-01-06T03:06:53.178Z,4.17
2023-01-06T03:09:22.635Z,4.15
2023-01-06T03:11:50.947Z,4.15
2023-01-06T03:14:30.783Z,4.14
2023-01-06T03:16:57.204Z,4.04
2023-01-06T03:19:24.231Z,4.05
2023-01-06T03:21:51.530Z,3.94
2023-01-06T03:24:18.223Z,3.89
2023-01-06T03:26:45.829Z,3.90
2023-01-06T03:29:13.440Z,3.95
2023-01-06T03:31:48.542Z,3.95
2023-01-06T03:34:27.005Z,3.97
2023-01-06T03:36:53.399Z,3.94
2023-01-06T03:39:32.873Z,3.96
2023-01-06T03:42:34.764Z,3.94
2023-01-06T03:45:20.136Z,3.86
2023-01-06T03:47:52.759Z,3.92
2023-01-06T03:50:51.701Z,3.90
2023-01-06T03:53:20.907Z,3.88
2023-01-06T03:55:51.793Z,3.85
2023-01-06T03:58:19.467Z,3.82
2023-01-06T04:00:47.022Z,3.80
2023-01-06T04:03:14.871Z,3.85
2023-01-06T04:05:41.447Z,3.90
2023-01-06T04:08:07.883Z,3.94
2023-01-06T04:10:34.349Z,3.89
2023-01-06T04:13:00.814Z,3.85
2023-01-06T04:15:29.389Z,3.89
2023-01-06T04:17:56.231Z,3.91
2023-01-06T04:20:24.418Z,3.93
2023-01-06T04:22:52.692Z,3.91
2023-01-06T04:25:19.143Z,3.89
2023-01-06T04:27:45.566Z,3.80
2023-01-06T04:30:12.203Z,3.78
2023-01-06T04:32:38.763Z,3.78
2023-01-06T04:35:05.412Z,3.83
2023-01-06T04:37:31.922Z,3.89
2023-01-06T04:39:58.399Z,3.92
2023-01-06T04:42:24.828Z,3.95
2023-01-06T04:44:51.339Z,3.90
2023-01-06T04:47:17.816Z,3.91
2023-01-06T04:49:44.320Z,3.88
2023-01-06T04:52:10.763Z,3.86
2023-01-06T04:54:37.225Z,3.87
2023-01-06T04:57:03.726Z,3.88
2023-01-06T04:59:30.155Z,3.86
2023-01-06T05:01:56.673Z,3.85
2023-01-06T05:04:23.210Z,3.89
2023-01-06T05:06:49.721Z,3.93
2023-01-06T05:09:16.186Z,3.97
2023-01-06T05:11:42.616Z,3.85
2023-01-06T05:14:09.051Z,3.75
2023-01-06T05:16:35.594Z,3.79
2023-01-06T05:19:02.140Z,3.76
2023-01-06T05:21:32.291Z,3.81
2023-01-06T05:23:59.568Z,3.76
2023-01-06T05:26:27.478Z,3.77
2023-01-06T05:28:54.266Z,3.79
2023-01-06T05:31:21.058Z,3.76
2023-01-06T05:33:47.640Z,3.72
2023-01-06T05:36:15.627Z,3.74
2023-01-06T05:38:42.293Z,3.80
2023-01-06T05:41:08.882Z,3.69
2023-01-06T05:43:36.016Z,3.72
2023-01-06T05:46:07.001Z,3.77
2023-01-06T05:48:33.578Z,3.80
2023-01-06T05:51:03.795Z,3.79
2023-01-06T05:53:30.931Z,3.80
2023-01-06T05:56:03.973Z,3.82
2023-01-06T05:58:30.492Z,3.77
2023-01-06T06:00:56.956Z,3.77
2023-01-06T06:03:23.524Z,3.85
2023-01-06T06:05:50.016Z,3.80
2023-01-06T06:08:16.571Z,3.81
2023-01-06T06:10:43.340Z,3.87
2023-01-06T06:13:09.825Z,3.89
2023-01-06T06:15:36.257Z,3.93
2023-01-06T06:18:03.311Z,3.99
2023-01-06T06:20:29.940Z,4.00
2023-01-06T06:22:56.371Z,3.95
2023-01-06T06:25:22.840Z,3.96
2023-01-06T06:27:49.258Z,4.02
2023-01-06T06:30:17.079Z,4.03
2023-01-06T06:32:43.542Z,4.06
2023-01-06T06:35:09.988Z,4.03
2023-01-06T06:37:36.428Z,4.02
2023-01-06T06:40:03.012Z,3.95
2023-01-06T06:42:29.459Z,3.93
2023-01-06T06:44:55.896Z,3.97
2023-01-06T06:47:22.316Z,3.99
2023-01-06T06:49:48.755Z,3.97
2023-01-06T06:52:16.420Z,4.02
2023-01-06T06:54:42.918Z,4.01
2023-01-06T06:57:09.395Z,3.99
2023-01-06T06:59:35.842Z,4.01
2023-01-06T07:02:02.469Z,4.01
2023-01-06T07:04:29.155Z,3.98
2023-01-06T07:06:56.131Z,3.91
2023-01-06T07:09:22.557Z,3.93
2023-01-06T07:11:49.048Z,3.98
2023-01-06T07:14:15.462Z,3.93
2023-01-06T07:16:41.926Z,3.93
2023-01-06T07:19:08.742Z,3.85
2023-01-06T07:21:35.181Z,3.86
2023-01-06T07:24:01.592Z,3.91
2023-01-06T07:26:28.066Z,3.93
2023-01-06T07:28:54.500Z,3.92
2023-01-06T07:31:21.042Z,3.96
2023-01-06T07:33:47.503Z,4.01
2023-01-06T07:36:13.933Z,4.06
2023-01-06T07:38:40.367Z,4.00
2023-01-06T07:41:06.815Z,3.98
2023-01-06T07:43:33.285Z,3.97
2023-01-06T07:45:59.781Z,3.99
2023-01-06T07:48:26.276Z,3.90
2023-01-06T07:50:52.721Z,3.89
2023-01-06T07:53:19.211Z,3.92
2023-01-06T07:55:52.666Z,3.89
2023-01-06T07:58:19.125Z,3.92
2023-01-06T08:00:45.590Z,3.94
2023-01-06T08:03:12.347Z,3.94
2023-01-06T08:05:41.430Z,3.96
2023-01-06T08:08:07.873Z,3.98
2023-01-06T08:10:34.336Z,3.97
2023-01-06T08:13:00.826Z,3.91
2023-01-06T08:15:27.264Z,3.91
2023-01-06T08:17:54.306Z,3.97
2023-01-06T08:20:21.046Z,4.02
2023-01-06T08:22:47.572Z,4.02
2023-01-06T08:25:14.053Z,3.96
2023-01-06T08:27:40.495Z,3.97
2023-01-06T08:30:07.258Z,4.00
2023-01-06T08:32:33.697Z,4.03
2023-01-06T08:35:00.195Z,4.00
2023-01-06T08:37:26.807Z,3.96
2023-01-06T08:39:53.253Z,3.96
2023-01-06T08:42:19.940Z,3.99
2023-01-06T08:44:46.394Z,3.98
2023-01-06T08:47:12.820Z,3.97
2023-01-06T08:49:39.326Z,4.00
2023-01-06T08:52:06.043Z,4.00
2023-01-06T08:54:32.492Z,4.02
2023-01-06T08:56:58.940Z,3.97
2023-01-06T08:59:25.383Z,4.00
2023-01-06T09:01:52.306Z,4.04
2023-01-06T09:04:18.859Z,4.01
2023-01-06T09:06:47.301Z,4.00
2023-01-06T09:09:13.817Z,3.94
2023-01-06T09:11:41.032Z,3.99
2023-01-06T09:14:08.371Z,3.97
2023-01-06T09:16:34.820Z,4.03
2023-01-06T09:19:01.245Z,4.13
2023-01-06T09:21:27.681Z,4.12
2023-01-06T09:23:54.175Z,4.15
2023-01-06T09:26:21.765Z,4.22
2023-01-06T09:28:48.259Z,4.23
2023-01-06T09:31:14.797Z,4.29
2023-01-06T09:33:41.345Z,4.34
2023-01-06T09:36:07.923Z,4.37
2023-01-06T09:38:34.362Z,4.37
2023-01-06T09:41:00.752Z,4.40
2023-01-06T09:43:27.181Z,4.39
2023-01-06T09:45:55.150Z,4.44
2023-01-06T09:48:25.385Z,4.34
2023-01-06T09:50:54.373Z,4.37
2023-01-06T09:53:35.936Z,4.45
2023-01-06T09:56:04.119Z,4.51
2023-01-06T09:58:42.429Z,4.53
2023-01-06T10:01:12.275Z,4.45
2023-01-06T10:03:38.859Z,4.48
2023-01-06T10:06:24.148Z,4.53
2023-01-06T10:08:56.424Z,4.58
2023-01-06T10:11:29.626Z,4.66
2023-01-06T10:14:04.837Z,4.64
2023-01-06T10:16:37.528Z,4.70
2023-01-06T10:19:03.987Z,4.77
2023-01-06T10:21:41.882Z,4.78
2023-01-06T10:24:14.029Z,4.77
2023-01-06T10:26:50.667Z,4.81
2023-01-06T10:29:18.218Z,4.79
2023-01-06T10:31:54.315Z,4.74
2023-01-06T10:34:22.371Z,4.69
2023-01-06T10:36:53.310Z,4.71
2023-01-06T10:39:24.443Z,4.72
2023-01-06T10:42:21.592Z,4.67
2023-01-06T10:44:48.022Z,4.68
2023-01-06T10:47:31.908Z,4.70
2023-01-06T10:49:58.595Z,4.62
2023-01-06T10:52:26.208Z,4.69
2023-01-06T10:54:54.998Z,4.77
2023-01-06T10:57:27.003Z,4.78
2023-01-06T11:00:12.618Z,4.80
2023-01-06T11:02:43.526Z,4.83
2023-01-06T11:05:13.005Z,4.83
2023-01-06T11:07:45.400Z,4.77
2023-01-06T11:10:22.887Z,4.81
2023-01-06T11:12:49.367Z,4.91
2023-01-06T11:15:22.055Z,4.99
2023-01-06T11:17:48.915Z,5.02
2023-01-06T11:20:18.388Z,5.04
2023-01-06T11:22:44.989Z,5.09
2023-01-06T11:25:20.319Z,5.03
2023-01-06T11:27:47.466Z,4.97
2023-01-06T11:30:27.228Z,5.05
2023-01-06T11:32:54.041Z,5.05
2023-01-06T11:35:21.652Z,5.08
2023-01-06T11:37:48.274Z,5.16
2023-01-06T11:40:19.862Z,5.19
2023-01-06T11:42:52.012Z,5.19
2023-01-06T11:45:35.985Z,5.21
2023-01-06T11:48:08.761Z,5.27
2023-01-06T11:50:35.245Z,5.22
2023-01-06T11:53:03.082Z,5.23
2023-01-06T11:55:30.722Z,5.23
2023-01-06T11:58:19.101Z,5.24
2023-01-06T12:00:47.978Z,5.26
2023-01-06T12:03:20.442Z,5.28
2023-01-06T12:06:05.638Z,5.30
2023-01-06T12:08:43.948Z,5.33
2023-01-06T12:11:17.981Z,5.33
2023-01-06T12:14:01.670Z,5.39
2023-01-06T12:16:41.096Z,5.47
2023-01-06T12:19:15.644Z,5.42
2023-01-06T12:21:42.407Z,5.49
2023-01-06T12:24:13.527Z,5.46
2023-01-06T12:26:40.568Z,5.50
2023-01-06T12:29:07.447Z,5.51
2023-01-06T12:31:45.358Z,5.57
2023-01-06T12:34:23.187Z,5.57
2023-01-06T12:36:56.500Z,5.59
2023-01-06T12:39:25.720Z,5.64
2023-01-06T12:41:56.766Z,5.67
2023-01-06T12:44:42.075Z,5.69
2023-01-06T12:47:26.672Z,5.68
2023-01-06T12:50:02.315Z,5.67
2023-01-06T12:52:33.058Z,5.69
2023-01-06T12:55:00.246Z,5.74
2023-01-06T12:57:36.227Z,5.75
2023-01-06T13:00:19.019Z,5.72
2023-01-06T13:03:04.387Z,5.79
2023-01-06T13:05:45.112Z,5.83
2023-01-06T13:08:21.013Z,5.85
2023-01-06T13:10:58.517Z,5.92
2023-01-06T13:13:43.587Z,5.94
2023-01-06T13:16:33.352Z,5.99
2023-01-06T13:19:08.419Z,6.06
2023-01-06T13:21:35.975Z,6.12
2023-01-06T13:24:11.880Z,6.14
2023-01-06T13:26:56.939Z,6.12
2023-01-06T13:29:26.421Z,6.13
2023-01-06T13:32:09.316Z,6.15
2023-01-06T13:34:52.873Z,6.13
2023-01-06T13:37:19.995Z,6.14
2023-01-06T13:39:50.203Z,6.17
2023-01-06T13:42:19.664Z,6.21
2023-01-06T13:44:47.406Z,6.24
2023-01-06T13:47:19.582Z,6.25
2023-01-06T13:49:46.123Z,6.26
2023-01-06T13:52:22.042Z,6.25
2023-01-06T13:54:48.455Z,6.22
2023-01-06T13:57:34.795Z,6.21
2023-01-06T14:00:01.189Z,6.16
2023-01-06T14:02:37.840Z,6.13
2023-01-06T14:05:25.204Z,6.09
2023-01-06T14:07:56.151Z,6.09
2023-01-06T14:10:34.858Z,6.05
2023-01-06T14:13:02.665Z,6.01
2023-01-06T14:15:33.350Z,5.97
2023-01-06T14:18:00.533Z,5.97
2023-01-06T14:20:31.898Z,5.95
2023-01-06T14:23:21.554Z,5.88
2023-01-06T14:25:53.160Z,5.82
2023-01-06T14:28:19.547Z,5.78
2023-01-06T14:30:46.629Z,5.76
2023-01-06T14:33:24.729Z,5.77
2023-01-06T14:35:54.653Z,5.72
2023-01-06T14:38:21.055Z,5.67
2023-01-06T14:40:59.040Z,5.65
2023-01-06T14:43:31.110Z,5.62
2023-01-06T14:46:01.811Z,5.60
2023-01-06T14:48:28.892Z,5.59
2023-01-06T14:50:58.846Z,5.52
2023-01-06T14:53:28.490Z,5.46
2023-01-06T14:55:55.348Z,5.45
2023-01-06T14:58:27.419Z,5.38
2023-01-06T15:00:53.877Z,5.35
2023-01-06T15:03:21.675Z,5.34
2023-01-06T15:05:48.234Z,5.26
2023-01-06T15:08:19.043Z,5.24
2023-01-06T15:10:46.760Z,5.20
2023-01-06T15:13:30.204Z,5.19
2023-01-06T15:15:59.738Z,5.16
2023-01-06T15:18:26.218Z,5.14
2023-01-06T15:20:54.200Z,5.08
2023-01-06T15:23:21.484Z,5.05
2023-01-06T15:25:49.203Z,5.03
2023-01-06T15:28:29.030Z,5.00
2023-01-06T15:30:56.018Z,4.93
2023-01-06T15:33:23.767Z,4.91
2023-01-06T15:35:51.165Z,4.89
2023-01-06T15:38:20.591Z,4.84
2023-01-06T15:40:47.065Z,4.80
2023-01-06T15:43:16.931Z,4.76
2023-01-06T15:45:44.206Z,4.73
2023-01-06T15:48:12.325Z,4.69
2023-01-06T15:50:38.839Z,4.62
2023-01-06T15:53:06.899Z,4.58
2023-01-06T15:55:34.908Z,4.53
2023-01-06T15:58:01.426Z,4.51
2023-01-06T16:00:36.336Z,4.49
2023-01-06T16:03:04.167Z,4.45
2023-01-06T16:05:40.288Z,4.41
2023-01-06T16:08:15.792Z,4.35
2023-01-06T16:10:42.483Z,4.32
2023-01-06T16:13:29.025Z,4.30
2023-01-06T16:16:19.608Z,4.27
2023-01-06T16:18:46.581Z,4.28
2023-01-06T16:21:17.691Z,4.27
2023-01-06T16:23:48.845Z,4.24
2023-01-06T16:26:17.741Z,4.21
2023-01-06T16:28:46.850Z,4.17
2023-01-06T16:31:14.595Z,4.14
2023-01-06T16:33:42.497Z,4.11
2023-01-06T16:36:11.849Z,4.08
2023-01-06T16:38:38.897Z,4.10
2023-01-06T16:41:05.461Z,4.11
2023-01-06T16:43:31.879Z,4.14
2023-01-06T16:46:02.247Z,4.12
2023-01-06T16:48:28.703Z,4.08
2023-01-06T16:50:56.480Z,4.01
2023-01-06T16:53:23.419Z,4.00
2023-01-06T16:55:53.835Z,4.00
2023-01-06T16:58:26.034Z,4.01
2023-01-06T17:00:54.374Z,3.98
2023-01-06T17:03:22.451Z,3.98
2023-01-06T17:05:48.915Z,4.02
2023-01-06T17:08:16.310Z,4.06
2023-01-06T17:10:43.091Z,4.06
2023-01-06T17:13:32.217Z,4.08
2023-01-06T17:16:00.329Z,4.09
2023-01-06T17:18:30.736Z,4.09
2023-01-06T17:21:03.954Z,4.07
2023-01-06T17:23:36.308Z,4.08
2023-01-06T17:26:09.891Z,4.07
2023-01-06T17:28:37.555Z,4.06
2023-01-06T17:31:06.648Z,4.07
2023-01-06T17:33:33.153Z,4.07
2023-01-06T17:35:59.963Z,4.08
2023-01-06T17:38:26.416Z,4.09
2023-01-06T17:40:54.807Z,4.10
2023-01-06T17:43:24.304Z,4.10
2023-01-06T17:45:50.992Z,4.10
2023-01-06T17:48:17.532Z,4.11
2023-01-06T17:50:52.387Z,4.14
2023-01-06T17:53:41.036Z,4.14
2023-01-06T17:56:08.975Z,4.17
2023-01-06T17:58:39.869Z,4.16
2023-01-06T18:01:07.770Z,4.16
2023-01-06T18:03:37.043Z,4.15
2023-01-06T18:06:03.462Z,4.17
2023-01-06T18:08:31.683Z,4.19
2023-01-06T18:11:06.389Z,4.20
2023-01-06T18:13:35.842Z,4.21
2023-01-06T18:16:05.899Z,4.21
2023-01-06T18:18:36.549Z,4.20
2023-01-06T18:21:05.466Z,4.20
2023-01-06T18:23:33.218Z,4.15
2023-01-06T18:26:01.152Z,4.11
2023-01-06T18:28:28.562Z,4.12
2023-01-06T18:30:57.458Z,4.16
2023-01-06T18:33:24.591Z,4.17
2023-01-06T18:35:57.139Z,4.18
2023-01-06T18:38:27.250Z,4.20
2023-01-06T18:40:54.603Z,4.19
2023-01-06T18:43:29.682Z,4.18
2023-01-06T18:45:58.151Z,4.17
2023-01-06T18:48:27.760Z,4.09
2023-01-06T18:50:56.025Z,4.07
2023-01-06T18:53:25.221Z,4.09
2023-01-06T18:55:53.915Z,4.09
2023-01-06T18:58:23.121Z,4.04
2023-01-06T19:00:57.364Z,4.01
2023-01-06T19:03:23.857Z,4.05
2023-01-06T19:05:52.305Z,4.10
2023-01-06T19:08:21.625Z,4.12
2023-01-06T19:10:49.263Z,4.13
2023-01-06T19:13:19.159Z,4.12
2023-01-06T19:15:45.964Z,4.10
2023-01-06T19:18:14.754Z,4.11
2023-01-06T19:20:41.627Z,4.04
2023-01-06T19:23:24.722Z,3.98
2023-01-06T19:26:03.371Z,4.02
2023-01-06T19:28:31.318Z,4.06
2023-01-06T19:30:58.420Z,4.09
2023-01-06T19:33:24.950Z,4.14
2023-01-06T19:35:52.892Z,4.14
2023-01-06T19:38:19.345Z,4.15
2023-01-06T19:40:45.773Z,4.16
2023-01-06T19:43:16.458Z,4.14
2023-01-06T19:45:43.364Z,4.07
2023-01-06T19:48:36.100Z,4.05
2023-01-06T19:51:20.652Z,4.09
2023-01-06T19:54:13.428Z,4.13
2023-01-06T19:56:43.070Z,4.12
2023-01-06T19:59:16.966Z,4.12
2023-01-06T20:01:44.395Z,4.14
2023-01-06T20:04:22.680Z,4.15
2023-01-06T20:06:49.362Z,4.17
2023-01-06T20:09:16.207Z,4.19
2023-01-06T20:11:42.910Z,4.18
2023-01-06T20:14:09.933Z,4.19
2023-01-06T20:16:37.000Z,4.22
2023-01-06T20:19:04.426Z,4.26
2023-01-06T20:21:30.898Z,4.28
2023-01-06T20:23:58.506Z,4.26
2023-01-06T20:26:25.305Z,4.25
2023-01-06T20:28:52.080Z,4.21
2023-01-06T20:31:18.729Z,4.16
2023-01-06T20:33:46.118Z,4.13
2023-01-06T20:36:17.078Z,4.18
2023-01-06T20:38:44.550Z,4.22
2023-01-06T20:41:11.075Z,4.24
2023-01-06T20:43:37.661Z,4.19
2023-01-06T20:46:04.264Z,4.16
2023-01-06T20:48:30.763Z,4.17
2023-01-06T20:50:57.323Z,4.22
2023-01-06T20:53:23.945Z,4.25
2023-01-06T20:55:50.373Z,4.22
2023-01-06T20:58:16.847Z,4.25
2023-01-06T21:00:43.438Z,4.27
2023-01-06T21:03:09.991Z,4.32
2023-01-06T21:05:36.473Z,4.28
2023-01-06T21:08:03.034Z,4.28
2023-01-06T21:10:29.589Z,4.21
2023-01-06T21:12:57.617Z,4.24
2023-01-06T21:15:26.226Z,4.26
2023-01-06T21:17:52.931Z,4.28
2023-01-06T21:20:19.442Z,4.29
2023-01-06T21:22:45.947Z,4.34
2023-01-06T21:25:12.398Z,4.37
2023-01-06T21:27:38.814Z,4.29
2023-01-06T21:30:05.489Z,4.28
2023-01-06T21:32:31.911Z,4.32
2023-01-06T21:34:58.709Z,4.33
2023-01-06T21:37:25.185Z,4.29
2023-01-06T21:39:51.621Z,4.32
2023-01-06T21:42:36.753Z,4.24
2023-01-06T21:45:03.448Z,4.23
2023-01-06T21:47:29.880Z,4.23
2023-01-06T21:49:56.313Z,4.19
2023-01-06T21:52:22.791Z,4.21
2023-01-06T21:54:49.500Z,4.24
2023-01-06T21:57:15.994Z,4.26
2023-01-06T21:59:42.514Z,4.24
2023-01-06T22:02:09.451Z,4.29
2023-01-06T22:04:36.041Z,4.35
2023-01-06T22:07:05.164Z,4.40
2023-01-06T22:09:32.102Z,4.35
2023-01-06T22:12:00.109Z,4.32
2023-01-06T22:14:26.561Z,4.34
2023-01-06T22:16:54.651Z,4.31
2023-01-06T22:19:21.235Z,4.33
2023-01-06T22:21:47.752Z,4.29
2023-01-06T22:24:15.172Z,4.33
2023-01-06T22:26:41.655Z,4.38
2023-01-06T22:29:08.363Z,4.38
2023-01-06T22:31:35.683Z,4.33
2023-01-06T22:34:02.224Z,4.32
2023-01-06T22:36:28.754Z,4.32
2023-01-06T22:38:55.193Z,4.29
2023-01-06T22:41:21.655Z,4.28
2023-01-06T22:43:48.097Z,4.33
2023-01-06T22:46:15.700Z,4.39
2023-01-06T22:48:44.843Z,4.44
2023-01-06T22:51:11.955Z,4.47
2023-01-06T22:53:38.403Z,4.48
2023-01-06T22:56:06.444Z,4.49
2023-01-06T22:58:33.634Z,4.48
2023-01-06T23:01:00.372Z,4.50
2023-01-06T23:03:27.072Z,4.52
2023-01-06T23:05:57.945Z,4.55
2023-01-06T23:08:25.986Z,4.55
2023-01-06T23:10:58.106Z,4.55
2023-01-06T23:13:24.533Z,4.59
2023-01-06T23:15:58.489Z,4.59
2023-01-06T23:18:24.932Z,4.59
2023-01-06T23:21:01.852Z,4.60
2023-01-06T23:23:28.755Z,4.59
2023-01-06T23:26:00.595Z,4.59
2023-01-06T23:28:28.072Z,4.60
2023-01-06T23:30:59.945Z,4.62
2023-01-06T23:33:26.463Z,4.60
2023-01-06T23:35:52.916Z,4.56
2023-01-06T23:38:19.314Z,4.57
2023-01-06T23:40:45.799Z,4.56
2023-01-06T23:43:12.217Z,4.58
2023-01-06T23:45:38.647Z,4.56
2023-01-06T23:48:05.168Z,4.57
2023-01-06T23:50:31.594Z,4.60
2023-01-06T23:52:58.134Z,4.61
2023-01-06T23:55:24.588Z,4.63
2023-01-06T23:57:51.024Z,4.64
